sensor_id;sensor_type;location;lat;lon;timestamp;P1;durP1;ratioP1;P2;durP2;ratioP2
10699;SDS011;5401;41.986;21.452;2023-06-10T00:00:55;12.10;;;7.73;;
10699;SDS011;5401;41.986;21.452;2023-06-10T00:03:23;8.43;;;7.27;;
10699;SDS011;5401;41.986;21.452;2023-06-10T00:05:51;15.17;;;10.07;;
10699;SDS011;5401;41.986;21.452;2023-06-10T00:08:18;11.87;;;9.07;;
10699;SDS011;5401;41.986;21.452;2023-06-10T00:10:46;11.43;;;8.37;;
10699;SDS011;5401;41.986;21.452;2023-06-10T00:13:15;14.80;;;9.63;;
10699;SDS011;5401;41.986;21.452;2023-06-10T00:15:43;10.13;;;7.60;;
10699;SDS011;5401;41.986;21.452;2023-06-10T00:18:11;12.67;;;8.73;;
10699;SDS011;5401;41.986;21.452;2023-06-10T00:20:39;15.57;;;9.33;;
10699;SDS011;5401;41.986;21.452;2023-06-10T00:23:08;8.50;;;6.23;;
10699;SDS011;5401;41.986;21.452;2023-06-10T00:25:35;8.17;;;6.37;;
10699;SDS011;5401;41.986;21.452;2023-06-10T00:28:03;14.13;;;8.17;;
10699;SDS011;5401;41.986;21.452;2023-06-10T00:30:32;13.40;;;8.23;;
10699;SDS011;5401;41.986;21.452;2023-06-10T00:33:00;12.53;;;7.47;;
10699;SDS011;5401;41.986;21.452;2023-06-10T00:35:27;20.10;;;9.13;;
10699;SDS011;5401;41.986;21.452;2023-06-10T00:37:55;21.17;;;11.60;;
10699;SDS011;5401;41.986;21.452;2023-06-10T00:40:22;20.97;;;9.27;;
10699;SDS011;5401;41.986;21.452;2023-06-10T00:42:50;13.77;;;8.47;;
10699;SDS011;5401;41.986;21.452;2023-06-10T00:45:18;19.53;;;10.97;;
10699;SDS011;5401;41.986;21.452;2023-06-10T00:47:47;10.70;;;8.00;;
10699;SDS011;5401;41.986;21.452;2023-06-10T00:50:14;14.17;;;8.17;;
10699;SDS011;5401;41.986;21.452;2023-06-10T00:52:42;16.53;;;9.50;;
10699;SDS011;5401;41.986;21.452;2023-06-10T00:55:12;14.33;;;6.60;;
10699;SDS011;5401;41.986;21.452;2023-06-10T00:57:40;12.07;;;6.53;;
10699;SDS011;5401;41.986;21.452;2023-06-10T01:00:10;12.00;;;7.30;;
10699;SDS011;5401;41.986;21.452;2023-06-10T01:02:39;12.10;;;5.80;;
10699;SDS011;5401;41.986;21.452;2023-06-10T01:05:08;10.70;;;6.03;;
10699;SDS011;5401;41.986;21.452;2023-06-10T01:07:37;8.60;;;5.50;;
10699;SDS011;5401;41.986;21.452;2023-06-10T01:10:11;11.60;;;6.37;;
10699;SDS011;5401;41.986;21.452;2023-06-10T01:12:49;6.17;;;5.33;;
10699;SDS011;5401;41.986;21.452;2023-06-10T01:15:22;16.23;;;8.40;;
10699;SDS011;5401;41.986;21.452;2023-06-10T01:17:54;16.90;;;8.57;;
10699;SDS011;5401;41.986;21.452;2023-06-10T01:20:25;14.67;;;9.47;;
10699;SDS011;5401;41.986;21.452;2023-06-10T01:22:55;19.37;;;8.37;;
10699;SDS011;5401;41.986;21.452;2023-06-10T01:25:23;9.73;;;5.90;;
10699;SDS011;5401;41.986;21.452;2023-06-10T01:27:54;10.03;;;6.30;;
10699;SDS011;5401;41.986;21.452;2023-06-10T01:30:29;10.57;;;5.73;;
10699;SDS011;5401;41.986;21.452;2023-06-10T01:33:04;18.97;;;6.73;;
10699;SDS011;5401;41.986;21.452;2023-06-10T01:35:35;17.40;;;8.60;;
10699;SDS011;5401;41.986;21.452;2023-06-10T01:38:06;8.10;;;5.43;;
10699;SDS011;5401;41.986;21.452;2023-06-10T01:40:34;13.30;;;6.00;;
10699;SDS011;5401;41.986;21.452;2023-06-10T01:43:02;18.67;;;9.43;;
10699;SDS011;5401;41.986;21.452;2023-06-10T01:45:31;11.03;;;6.43;;
10699;SDS011;5401;41.986;21.452;2023-06-10T01:47:58;11.07;;;6.53;;
10699;SDS011;5401;41.986;21.452;2023-06-10T01:50:26;14.37;;;7.53;;
10699;SDS011;5401;41.986;21.452;2023-06-10T01:52:56;11.83;;;6.37;;
10699;SDS011;5401;41.986;21.452;2023-06-10T01:55:25;10.77;;;6.93;;
10699;SDS011;5401;41.986;21.452;2023-06-10T01:57:53;15.23;;;7.77;;
10699;SDS011;5401;41.986;21.452;2023-06-10T02:00:20;12.27;;;7.70;;
10699;SDS011;5401;41.986;21.452;2023-06-10T02:02:48;7.40;;;6.33;;
10699;SDS011;5401;41.986;21.452;2023-06-10T02:05:15;12.07;;;7.03;;
10699;SDS011;5401;41.986;21.452;2023-06-10T02:07:43;16.13;;;9.33;;
10699;SDS011;5401;41.986;21.452;2023-06-10T02:10:10;16.07;;;7.97;;
10699;SDS011;5401;41.986;21.452;2023-06-10T02:12:41;10.50;;;7.80;;
10699;SDS011;5401;41.986;21.452;2023-06-10T02:15:09;18.97;;;10.10;;
10699;SDS011;5401;41.986;21.452;2023-06-10T02:17:36;13.80;;;7.57;;
10699;SDS011;5401;41.986;21.452;2023-06-10T02:20:04;9.33;;;7.53;;
10699;SDS011;5401;41.986;21.452;2023-06-10T02:22:34;20.03;;;10.10;;
10699;SDS011;5401;41.986;21.452;2023-06-10T02:25:01;9.83;;;7.40;;
10699;SDS011;5401;41.986;21.452;2023-06-10T02:27:29;9.90;;;8.00;;
10699;SDS011;5401;41.986;21.452;2023-06-10T02:30:01;11.20;;;7.67;;
10699;SDS011;5401;41.986;21.452;2023-06-10T02:32:28;11.40;;;8.00;;
10699;SDS011;5401;41.986;21.452;2023-06-10T02:34:56;9.27;;;7.00;;
10699;SDS011;5401;41.986;21.452;2023-06-10T02:37:25;11.67;;;7.57;;
10699;SDS011;5401;41.986;21.452;2023-06-10T02:39:53;11.87;;;8.87;;
10699;SDS011;5401;41.986;21.452;2023-06-10T02:42:21;12.17;;;8.83;;
10699;SDS011;5401;41.986;21.452;2023-06-10T02:44:48;12.60;;;8.40;;
10699;SDS011;5401;41.986;21.452;2023-06-10T02:47:17;13.93;;;9.80;;
10699;SDS011;5401;41.986;21.452;2023-06-10T02:49:44;15.60;;;9.00;;
10699;SDS011;5401;41.986;21.452;2023-06-10T02:52:12;14.20;;;9.13;;
10699;SDS011;5401;41.986;21.452;2023-06-10T02:54:39;15.03;;;10.73;;
10699;SDS011;5401;41.986;21.452;2023-06-10T02:57:07;11.53;;;8.03;;
10699;SDS011;5401;41.986;21.452;2023-06-10T02:59:35;10.77;;;7.63;;
10699;SDS011;5401;41.986;21.452;2023-06-10T03:02:03;9.60;;;7.87;;
10699;SDS011;5401;41.986;21.452;2023-06-10T03:04:32;11.83;;;9.23;;
10699;SDS011;5401;41.986;21.452;2023-06-10T03:07:00;11.57;;;8.10;;
10699;SDS011;5401;41.986;21.452;2023-06-10T03:09:29;17.50;;;8.70;;
10699;SDS011;5401;41.986;21.452;2023-06-10T03:11:56;14.43;;;10.37;;
10699;SDS011;5401;41.986;21.452;2023-06-10T03:14:24;13.17;;;7.90;;
10699;SDS011;5401;41.986;21.452;2023-06-10T03:16:52;9.63;;;8.53;;
10699;SDS011;5401;41.986;21.452;2023-06-10T03:19:20;17.00;;;10.40;;
10699;SDS011;5401;41.986;21.452;2023-06-10T03:21:57;11.13;;;9.00;;
10699;SDS011;5401;41.986;21.452;2023-06-10T03:24:34;12.47;;;8.83;;
10699;SDS011;5401;41.986;21.452;2023-06-10T03:27:06;11.27;;;7.83;;
10699;SDS011;5401;41.986;21.452;2023-06-10T03:29:35;10.67;;;8.07;;
10699;SDS011;5401;41.986;21.452;2023-06-10T03:32:02;14.90;;;8.53;;
10699;SDS011;5401;41.986;21.452;2023-06-10T03:34:31;16.27;;;8.80;;
10699;SDS011;5401;41.986;21.452;2023-06-10T03:37:00;14.10;;;8.43;;
10699;SDS011;5401;41.986;21.452;2023-06-10T03:39:28;11.03;;;8.43;;
10699;SDS011;5401;41.986;21.452;2023-06-10T03:41:56;16.00;;;12.60;;
10699;SDS011;5401;41.986;21.452;2023-06-10T03:44:24;16.47;;;11.30;;
10699;SDS011;5401;41.986;21.452;2023-06-10T03:46:51;17.80;;;10.60;;
10699;SDS011;5401;41.986;21.452;2023-06-10T03:49:19;19.73;;;12.50;;
10699;SDS011;5401;41.986;21.452;2023-06-10T03:51:46;22.37;;;12.77;;
10699;SDS011;5401;41.986;21.452;2023-06-10T03:54:15;19.83;;;16.20;;
10699;SDS011;5401;41.986;21.452;2023-06-10T03:56:43;14.70;;;9.70;;
10699;SDS011;5401;41.986;21.452;2023-06-10T03:59:10;11.60;;;6.40;;
10699;SDS011;5401;41.986;21.452;2023-06-10T04:01:37;13.07;;;7.80;;
10699;SDS011;5401;41.986;21.452;2023-06-10T04:04:07;9.07;;;6.87;;
10699;SDS011;5401;41.986;21.452;2023-06-10T04:06:34;8.73;;;6.47;;
10699;SDS011;5401;41.986;21.452;2023-06-10T04:09:02;12.50;;;5.70;;
10699;SDS011;5401;41.986;21.452;2023-06-10T04:11:32;7.10;;;5.40;;
10699;SDS011;5401;41.986;21.452;2023-06-10T04:14:01;14.17;;;7.50;;
10699;SDS011;5401;41.986;21.452;2023-06-10T04:16:29;16.63;;;6.37;;
10699;SDS011;5401;41.986;21.452;2023-06-10T04:18:56;13.30;;;6.00;;
10699;SDS011;5401;41.986;21.452;2023-06-10T04:21:24;42.20;;;14.00;;
10699;SDS011;5401;41.986;21.452;2023-06-10T04:23:52;23.07;;;8.73;;
10699;SDS011;5401;41.986;21.452;2023-06-10T04:26:19;21.20;;;7.60;;
10699;SDS011;5401;41.986;21.452;2023-06-10T04:28:49;55.90;;;16.70;;
10699;SDS011;5401;41.986;21.452;2023-06-10T04:31:16;14.10;;;6.90;;
10699;SDS011;5401;41.986;21.452;2023-06-10T04:33:44;16.47;;;7.83;;
10699;SDS011;5401;41.986;21.452;2023-06-10T04:36:11;21.93;;;8.63;;
10699;SDS011;5401;41.986;21.452;2023-06-10T04:38:40;26.63;;;9.03;;
10699;SDS011;5401;41.986;21.452;2023-06-10T04:41:08;17.47;;;7.93;;
10699;SDS011;5401;41.986;21.452;2023-06-10T04:43:35;22.33;;;8.60;;
10699;SDS011;5401;41.986;21.452;2023-06-10T04:46:04;65.50;;;18.83;;
10699;SDS011;5401;41.986;21.452;2023-06-10T04:48:32;17.93;;;8.10;;
10699;SDS011;5401;41.986;21.452;2023-06-10T04:51:01;13.30;;;6.80;;
10699;SDS011;5401;41.986;21.452;2023-06-10T04:53:28;25.07;;;10.30;;
10699;SDS011;5401;41.986;21.452;2023-06-10T04:55:56;12.77;;;6.73;;
10699;SDS011;5401;41.986;21.452;2023-06-10T04:58:24;19.70;;;7.20;;
10699;SDS011;5401;41.986;21.452;2023-06-10T05:00:51;18.87;;;9.03;;
10699;SDS011;5401;41.986;21.452;2023-06-10T05:03:20;12.47;;;5.73;;
10699;SDS011;5401;41.986;21.452;2023-06-10T05:05:48;10.87;;;5.70;;
10699;SDS011;5401;41.986;21.452;2023-06-10T05:08:15;20.50;;;7.53;;
10699;SDS011;5401;41.986;21.452;2023-06-10T05:10:43;27.00;;;10.37;;
10699;SDS011;5401;41.986;21.452;2023-06-10T05:13:10;13.50;;;5.57;;
10699;SDS011;5401;41.986;21.452;2023-06-10T05:15:37;22.40;;;8.77;;
10699;SDS011;5401;41.986;21.452;2023-06-10T05:18:06;62.87;;;17.67;;
10699;SDS011;5401;41.986;21.452;2023-06-10T05:20:35;25.33;;;9.93;;
10699;SDS011;5401;41.986;21.452;2023-06-10T05:23:02;29.77;;;11.50;;
10699;SDS011;5401;41.986;21.452;2023-06-10T05:25:30;23.37;;;8.97;;
10699;SDS011;5401;41.986;21.452;2023-06-10T05:27:58;8.27;;;5.10;;
10699;SDS011;5401;41.986;21.452;2023-06-10T05:30:25;17.73;;;6.27;;
10699;SDS011;5401;41.986;21.452;2023-06-10T05:32:53;16.63;;;7.47;;
10699;SDS011;5401;41.986;21.452;2023-06-10T05:35:21;15.60;;;7.40;;
10699;SDS011;5401;41.986;21.452;2023-06-10T05:37:50;17.10;;;7.73;;
10699;SDS011;5401;41.986;21.452;2023-06-10T05:40:18;9.87;;;5.87;;
10699;SDS011;5401;41.986;21.452;2023-06-10T05:42:45;36.83;;;13.20;;
10699;SDS011;5401;41.986;21.452;2023-06-10T05:45:13;11.27;;;5.53;;
10699;SDS011;5401;41.986;21.452;2023-06-10T05:47:40;15.50;;;6.93;;
10699;SDS011;5401;41.986;21.452;2023-06-10T05:50:08;25.90;;;11.60;;
10699;SDS011;5401;41.986;21.452;2023-06-10T05:52:36;13.83;;;7.27;;
10699;SDS011;5401;41.986;21.452;2023-06-10T05:55:07;12.73;;;7.10;;
10699;SDS011;5401;41.986;21.452;2023-06-10T05:57:36;22.43;;;10.53;;
10699;SDS011;5401;41.986;21.452;2023-06-10T06:00:04;10.13;;;6.50;;
10699;SDS011;5401;41.986;21.452;2023-06-10T06:02:32;14.03;;;6.67;;
10699;SDS011;5401;41.986;21.452;2023-06-10T06:05:00;12.40;;;6.93;;
10699;SDS011;5401;41.986;21.452;2023-06-10T06:07:27;13.10;;;6.77;;
10699;SDS011;5401;41.986;21.452;2023-06-10T06:09:55;11.87;;;5.97;;
10699;SDS011;5401;41.986;21.452;2023-06-10T06:12:24;10.33;;;5.57;;
10699;SDS011;5401;41.986;21.452;2023-06-10T06:14:51;18.83;;;9.20;;
10699;SDS011;5401;41.986;21.452;2023-06-10T06:17:19;14.83;;;7.13;;
10699;SDS011;5401;41.986;21.452;2023-06-10T06:19:47;14.43;;;6.07;;
10699;SDS011;5401;41.986;21.452;2023-06-10T06:22:15;53.13;;;15.57;;
10699;SDS011;5401;41.986;21.452;2023-06-10T06:24:46;28.63;;;9.00;;
10699;SDS011;5401;41.986;21.452;2023-06-10T06:27:15;18.93;;;8.73;;
10699;SDS011;5401;41.986;21.452;2023-06-10T06:29:44;38.77;;;14.03;;
10699;SDS011;5401;41.986;21.452;2023-06-10T06:32:12;17.33;;;7.90;;
10699;SDS011;5401;41.986;21.452;2023-06-10T06:34:40;27.63;;;8.77;;
10699;SDS011;5401;41.986;21.452;2023-06-10T06:37:07;28.57;;;11.03;;
10699;SDS011;5401;41.986;21.452;2023-06-10T06:39:35;13.00;;;6.90;;
10699;SDS011;5401;41.986;21.452;2023-06-10T06:42:03;19.87;;;9.20;;
10699;SDS011;5401;41.986;21.452;2023-06-10T06:44:31;19.20;;;7.97;;
10699;SDS011;5401;41.986;21.452;2023-06-10T06:47:00;34.33;;;11.57;;
10699;SDS011;5401;41.986;21.452;2023-06-10T06:49:28;24.47;;;8.10;;
10699;SDS011;5401;41.986;21.452;2023-06-10T06:51:56;14.60;;;7.30;;
10699;SDS011;5401;41.986;21.452;2023-06-10T06:54:23;42.97;;;14.03;;
10699;SDS011;5401;41.986;21.452;2023-06-10T06:56:51;16.73;;;7.43;;
10699;SDS011;5401;41.986;21.452;2023-06-10T06:59:18;16.07;;;7.50;;
10699;SDS011;5401;41.986;21.452;2023-06-10T07:01:46;27.90;;;11.57;;
10699;SDS011;5401;41.986;21.452;2023-06-10T07:04:15;20.20;;;7.67;;
10699;SDS011;5401;41.986;21.452;2023-06-10T07:06:45;18.80;;;8.47;;
10699;SDS011;5401;41.986;21.452;2023-06-10T07:09:12;28.90;;;12.10;;
10699;SDS011;5401;41.986;21.452;2023-06-10T07:11:40;18.43;;;8.60;;
10699;SDS011;5401;41.986;21.452;2023-06-10T07:14:07;13.43;;;6.13;;
10699;SDS011;5401;41.986;21.452;2023-06-10T07:16:35;16.47;;;7.17;;
10699;SDS011;5401;41.986;21.452;2023-06-10T07:19:02;37.13;;;13.70;;
10699;SDS011;5401;41.986;21.452;2023-06-10T07:21:32;20.00;;;6.97;;
10699;SDS011;5401;41.986;21.452;2023-06-10T07:24:00;15.80;;;7.30;;
10699;SDS011;5401;41.986;21.452;2023-06-10T07:26:27;23.10;;;10.03;;
10699;SDS011;5401;41.986;21.452;2023-06-10T07:28:55;13.07;;;6.67;;
10699;SDS011;5401;41.986;21.452;2023-06-10T07:31:23;17.10;;;6.13;;
10699;SDS011;5401;41.986;21.452;2023-06-10T07:33:51;21.37;;;9.80;;
10699;SDS011;5401;41.986;21.452;2023-06-10T07:36:18;19.57;;;8.73;;
10699;SDS011;5401;41.986;21.452;2023-06-10T07:38:47;23.43;;;8.93;;
10699;SDS011;5401;41.986;21.452;2023-06-10T07:41:15;39.43;;;12.83;;
10699;SDS011;5401;41.986;21.452;2023-06-10T07:43:43;39.80;;;12.53;;
10699;SDS011;5401;41.986;21.452;2023-06-10T07:46:11;27.60;;;10.83;;
10699;SDS011;5401;41.986;21.452;2023-06-10T07:48:39;19.93;;;8.67;;
10699;SDS011;5401;41.986;21.452;2023-06-10T07:51:06;39.47;;;13.53;;
10699;SDS011;5401;41.986;21.452;2023-06-10T07:53:34;25.07;;;8.33;;
10699;SDS011;5401;41.986;21.452;2023-06-10T07:56:03;27.47;;;8.30;;
10699;SDS011;5401;41.986;21.452;2023-06-10T07:58:30;26.63;;;11.23;;
10699;SDS011;5401;41.986;21.452;2023-06-10T08:00:58;23.67;;;8.57;;
10699;SDS011;5401;41.986;21.452;2023-06-10T08:03:25;18.43;;;6.60;;
10699;SDS011;5401;41.986;21.452;2023-06-10T08:05:53;39.90;;;13.90;;
10699;SDS011;5401;41.986;21.452;2023-06-10T08:08:20;44.00;;;13.90;;
10699;SDS011;5401;41.986;21.452;2023-06-10T08:10:48;34.40;;;11.37;;
10699;SDS011;5401;41.986;21.452;2023-06-10T08:13:17;27.27;;;8.53;;
10699;SDS011;5401;41.986;21.452;2023-06-10T08:15:44;584.27;;;532.10;;
10699;SDS011;5401;41.986;21.452;2023-06-10T08:18:13;786.60;;;719.00;;
10699;SDS011;5401;41.986;21.452;2023-06-10T08:20:41;259.53;;;234.83;;
10699;SDS011;5401;41.986;21.452;2023-06-10T08:23:09;72.57;;;18.67;;
10699;SDS011;5401;41.986;21.452;2023-06-10T08:25:36;100.90;;;90.27;;
10699;SDS011;5401;41.986;21.452;2023-06-10T08:28:04;38.20;;;11.23;;
10699;SDS011;5401;41.986;21.452;2023-06-10T08:30:33;70.93;;;18.90;;
10699;SDS011;5401;41.986;21.452;2023-06-10T08:33:00;22.13;;;8.43;;
10699;SDS011;5401;41.986;21.452;2023-06-10T08:35:28;36.27;;;11.90;;
10699;SDS011;5401;41.986;21.452;2023-06-10T08:37:55;111.80;;;82.57;;
10699;SDS011;5401;41.986;21.452;2023-06-10T08:40:23;198.17;;;181.00;;
10699;SDS011;5401;41.986;21.452;2023-06-10T08:42:53;64.97;;;28.40;;
10699;SDS011;5401;41.986;21.452;2023-06-10T08:45:34;73.97;;;36.07;;
10699;SDS011;5401;41.986;21.452;2023-06-10T08:48:04;73.97;;;57.20;;
10699;SDS011;5401;41.986;21.452;2023-06-10T08:50:34;121.03;;;108.33;;
10699;SDS011;5401;41.986;21.452;2023-06-10T08:53:03;37.77;;;12.47;;
10699;SDS011;5401;41.986;21.452;2023-06-10T08:55:32;21.83;;;7.37;;
10699;SDS011;5401;41.986;21.452;2023-06-10T08:58:02;19.43;;;6.87;;
10699;SDS011;5401;41.986;21.452;2023-06-10T09:00:31;31.87;;;10.10;;
10699;SDS011;5401;41.986;21.452;2023-06-10T09:03:04;14.63;;;6.13;;
10699;SDS011;5401;41.986;21.452;2023-06-10T09:05:34;17.03;;;6.57;;
10699;SDS011;5401;41.986;21.452;2023-06-10T09:08:02;25.83;;;9.20;;
10699;SDS011;5401;41.986;21.452;2023-06-10T09:10:32;16.00;;;6.83;;
10699;SDS011;5401;41.986;21.452;2023-06-10T09:13:00;15.30;;;6.90;;
10699;SDS011;5401;41.986;21.452;2023-06-10T09:15:28;15.73;;;7.13;;
10699;SDS011;5401;41.986;21.452;2023-06-10T09:17:58;9.87;;;5.00;;
10699;SDS011;5401;41.986;21.452;2023-06-10T09:20:26;10.03;;;4.87;;
10699;SDS011;5401;41.986;21.452;2023-06-10T09:22:54;12.20;;;5.87;;
10699;SDS011;5401;41.986;21.452;2023-06-10T09:25:33;9.17;;;4.90;;
10699;SDS011;5401;41.986;21.452;2023-06-10T09:28:03;7.90;;;4.90;;
10699;SDS011;5401;41.986;21.452;2023-06-10T09:30:32;8.57;;;5.23;;
10699;SDS011;5401;41.986;21.452;2023-06-10T09:33:03;9.07;;;4.53;;
10699;SDS011;5401;41.986;21.452;2023-06-10T09:35:44;10.73;;;5.17;;
10699;SDS011;5401;41.986;21.452;2023-06-10T09:38:14;8.20;;;4.70;;
10699;SDS011;5401;41.986;21.452;2023-06-10T09:40:49;15.83;;;5.77;;
10699;SDS011;5401;41.986;21.452;2023-06-10T09:43:18;14.10;;;5.90;;
10699;SDS011;5401;41.986;21.452;2023-06-10T09:45:47;10.40;;;4.77;;
10699;SDS011;5401;41.986;21.452;2023-06-10T09:48:17;16.27;;;5.70;;
10699;SDS011;5401;41.986;21.452;2023-06-10T09:50:45;10.23;;;5.00;;
10699;SDS011;5401;41.986;21.452;2023-06-10T09:53:14;9.97;;;4.43;;
10699;SDS011;5401;41.986;21.452;2023-06-10T09:55:44;11.40;;;4.27;;
10699;SDS011;5401;41.986;21.452;2023-06-10T09:58:12;15.47;;;4.80;;
10699;SDS011;5401;41.986;21.452;2023-06-10T10:00:41;7.00;;;4.67;;
10699;SDS011;5401;41.986;21.452;2023-06-10T10:03:09;6.00;;;4.27;;
10699;SDS011;5401;41.986;21.452;2023-06-10T10:05:51;8.90;;;4.93;;
10699;SDS011;5401;41.986;21.452;2023-06-10T10:08:26;11.10;;;3.90;;
10699;SDS011;5401;41.986;21.452;2023-06-10T10:10:55;14.67;;;6.63;;
10699;SDS011;5401;41.986;21.452;2023-06-10T10:13:24;16.40;;;6.40;;
10699;SDS011;5401;41.986;21.452;2023-06-10T10:15:54;12.13;;;4.73;;
10699;SDS011;5401;41.986;21.452;2023-06-10T10:18:28;14.27;;;5.73;;
10699;SDS011;5401;41.986;21.452;2023-06-10T10:21:00;11.43;;;5.13;;
10699;SDS011;5401;41.986;21.452;2023-06-10T10:23:34;13.00;;;5.27;;
10699;SDS011;5401;41.986;21.452;2023-06-10T10:26:09;12.77;;;6.47;;
10699;SDS011;5401;41.986;21.452;2023-06-10T10:28:41;11.83;;;4.60;;
10699;SDS011;5401;41.986;21.452;2023-06-10T10:31:14;6.47;;;4.83;;
10699;SDS011;5401;41.986;21.452;2023-06-10T10:33:49;9.07;;;4.90;;
10699;SDS011;5401;41.986;21.452;2023-06-10T10:36:26;6.13;;;3.87;;
10699;SDS011;5401;41.986;21.452;2023-06-10T10:38:54;10.87;;;5.13;;
10699;SDS011;5401;41.986;21.452;2023-06-10T10:41:23;8.20;;;4.23;;
10699;SDS011;5401;41.986;21.452;2023-06-10T10:43:53;10.80;;;4.50;;
10699;SDS011;5401;41.986;21.452;2023-06-10T10:46:22;50.60;;;15.23;;
10699;SDS011;5401;41.986;21.452;2023-06-10T10:48:51;15.27;;;5.37;;
10699;SDS011;5401;41.986;21.452;2023-06-10T10:51:21;9.07;;;5.23;;
10699;SDS011;5401;41.986;21.452;2023-06-10T10:56:45;13.93;;;5.00;;
10699;SDS011;5401;41.986;21.452;2023-06-10T10:59:51;11.20;;;5.63;;
10699;SDS011;5401;41.986;21.452;2023-06-10T11:02:38;10.87;;;5.00;;
10699;SDS011;5401;41.986;21.452;2023-06-10T11:05:09;8.50;;;5.00;;
10699;SDS011;5401;41.986;21.452;2023-06-10T11:07:37;16.97;;;5.87;;
10699;SDS011;5401;41.986;21.452;2023-06-10T11:10:09;13.90;;;5.87;;
10699;SDS011;5401;41.986;21.452;2023-06-10T11:12:42;10.53;;;4.77;;
10699;SDS011;5401;41.986;21.452;2023-06-10T11:15:21;11.37;;;5.43;;
10699;SDS011;5401;41.986;21.452;2023-06-10T11:18:09;9.17;;;5.30;;
10699;SDS011;5401;41.986;21.452;2023-06-10T11:20:43;11.80;;;5.93;;
10699;SDS011;5401;41.986;21.452;2023-06-10T11:23:25;9.10;;;4.87;;
10699;SDS011;5401;41.986;21.452;2023-06-10T11:26:11;9.77;;;6.73;;
10699;SDS011;5401;41.986;21.452;2023-06-10T11:28:42;7.10;;;4.43;;
10699;SDS011;5401;41.986;21.452;2023-06-10T11:31:29;9.73;;;4.93;;
10699;SDS011;5401;41.986;21.452;2023-06-10T11:33:59;9.97;;;4.50;;
10699;SDS011;5401;41.986;21.452;2023-06-10T11:36:29;5.90;;;3.70;;
10699;SDS011;5401;41.986;21.452;2023-06-10T11:38:57;8.57;;;4.60;;
10699;SDS011;5401;41.986;21.452;2023-06-10T11:41:28;10.50;;;4.67;;
10699;SDS011;5401;41.986;21.452;2023-06-10T11:43:57;9.00;;;4.17;;
10699;SDS011;5401;41.986;21.452;2023-06-10T11:46:28;7.80;;;4.67;;
10699;SDS011;5401;41.986;21.452;2023-06-10T11:48:56;7.23;;;4.20;;
10699;SDS011;5401;41.986;21.452;2023-06-10T11:51:26;5.60;;;4.17;;
10699;SDS011;5401;41.986;21.452;2023-06-10T11:53:55;12.97;;;5.77;;
10699;SDS011;5401;41.986;21.452;2023-06-10T11:56:23;11.83;;;5.37;;
10699;SDS011;5401;41.986;21.452;2023-06-10T11:58:55;8.83;;;4.83;;
10699;SDS011;5401;41.986;21.452;2023-06-10T12:01:24;8.63;;;5.40;;
10699;SDS011;5401;41.986;21.452;2023-06-10T12:03:56;9.13;;;4.30;;
10699;SDS011;5401;41.986;21.452;2023-06-10T12:06:25;10.60;;;4.47;;
10699;SDS011;5401;41.986;21.452;2023-06-10T12:08:53;12.70;;;6.10;;
10699;SDS011;5401;41.986;21.452;2023-06-10T12:11:22;12.73;;;4.63;;
10699;SDS011;5401;41.986;21.452;2023-06-10T12:13:50;8.63;;;4.20;;
10699;SDS011;5401;41.986;21.452;2023-06-10T12:16:19;10.57;;;5.43;;
10699;SDS011;5401;41.986;21.452;2023-06-10T12:18:48;9.80;;;4.37;;
10699;SDS011;5401;41.986;21.452;2023-06-10T12:21:16;14.57;;;5.83;;
10699;SDS011;5401;41.986;21.452;2023-06-10T12:24:01;24.10;;;10.77;;
10699;SDS011;5401;41.986;21.452;2023-06-10T12:26:37;9.77;;;5.70;;
10699;SDS011;5401;41.986;21.452;2023-06-10T12:32:00;6.57;;;4.23;;
10699;SDS011;5401;41.986;21.452;2023-06-10T12:34:31;25.80;;;9.63;;
10699;SDS011;5401;41.986;21.452;2023-06-10T12:37:00;11.10;;;5.57;;
10699;SDS011;5401;41.986;21.452;2023-06-10T12:39:28;12.37;;;6.60;;
10699;SDS011;5401;41.986;21.452;2023-06-10T12:41:56;25.70;;;10.73;;
10699;SDS011;5401;41.986;21.452;2023-06-10T12:44:31;9.20;;;5.90;;
10699;SDS011;5401;41.986;21.452;2023-06-10T12:47:06;19.33;;;6.57;;
10699;SDS011;5401;41.986;21.452;2023-06-10T12:49:35;15.47;;;8.37;;
10699;SDS011;5401;41.986;21.452;2023-06-10T12:52:03;10.27;;;6.57;;
10699;SDS011;5401;41.986;21.452;2023-06-10T12:54:31;10.23;;;6.50;;
10699;SDS011;5401;41.986;21.452;2023-06-10T12:57:00;16.67;;;9.10;;
10699;SDS011;5401;41.986;21.452;2023-06-10T12:59:28;8.73;;;5.93;;
10699;SDS011;5401;41.986;21.452;2023-06-10T13:01:57;12.13;;;6.33;;
10699;SDS011;5401;41.986;21.452;2023-06-10T13:04:27;61.33;;;18.50;;
10699;SDS011;5401;41.986;21.452;2023-06-10T13:06:55;24.37;;;10.40;;
10699;SDS011;5401;41.986;21.452;2023-06-10T13:09:24;26.83;;;11.80;;
10699;SDS011;5401;41.986;21.452;2023-06-10T13:11:53;35.67;;;12.23;;
10699;SDS011;5401;41.986;21.452;2023-06-10T13:14:21;13.60;;;6.87;;
10699;SDS011;5401;41.986;21.452;2023-06-10T13:16:49;10.53;;;6.57;;
10699;SDS011;5401;41.986;21.452;2023-06-10T13:19:17;25.67;;;10.17;;
10699;SDS011;5401;41.986;21.452;2023-06-10T13:21:48;14.03;;;8.13;;
10699;SDS011;5401;41.986;21.452;2023-06-10T13:24:16;11.10;;;6.97;;
10699;SDS011;5401;41.986;21.452;2023-06-10T13:26:44;22.47;;;9.60;;
10699;SDS011;5401;41.986;21.452;2023-06-10T13:29:12;19.60;;;7.83;;
10699;SDS011;5401;41.986;21.452;2023-06-10T13:31:40;13.13;;;7.03;;
10699;SDS011;5401;41.986;21.452;2023-06-10T13:34:08;12.37;;;6.90;;
10699;SDS011;5401;41.986;21.452;2023-06-10T13:36:36;22.43;;;9.10;;
10699;SDS011;5401;41.986;21.452;2023-06-10T13:39:05;12.63;;;7.53;;
10699;SDS011;5401;41.986;21.452;2023-06-10T13:41:32;12.33;;;7.20;;
10699;SDS011;5401;41.986;21.452;2023-06-10T13:44:00;18.50;;;9.87;;
10699;SDS011;5401;41.986;21.452;2023-06-10T13:46:28;11.10;;;6.60;;
10699;SDS011;5401;41.986;21.452;2023-06-10T13:48:57;10.23;;;6.40;;
10699;SDS011;5401;41.986;21.452;2023-06-10T13:51:24;17.83;;;8.13;;
10699;SDS011;5401;41.986;21.452;2023-06-10T13:53:52;19.43;;;9.67;;
10699;SDS011;5401;41.986;21.452;2023-06-10T13:56:21;7.33;;;5.20;;
10699;SDS011;5401;41.986;21.452;2023-06-10T13:58:49;13.60;;;8.23;;
10699;SDS011;5401;41.986;21.452;2023-06-10T14:01:19;7.10;;;5.80;;
10699;SDS011;5401;41.986;21.452;2023-06-10T14:03:46;8.77;;;6.00;;
10699;SDS011;5401;41.986;21.452;2023-06-10T14:06:14;7.23;;;5.47;;
10699;SDS011;5401;41.986;21.452;2023-06-10T14:08:44;15.40;;;7.73;;
10699;SDS011;5401;41.986;21.452;2023-06-10T14:11:12;9.73;;;5.43;;
10699;SDS011;5401;41.986;21.452;2023-06-10T14:13:42;8.13;;;5.53;;
10699;SDS011;5401;41.986;21.452;2023-06-10T14:16:09;16.73;;;9.27;;
10699;SDS011;5401;41.986;21.452;2023-06-10T14:18:37;5.27;;;4.57;;
10699;SDS011;5401;41.986;21.452;2023-06-10T14:21:05;11.17;;;5.20;;
10699;SDS011;5401;41.986;21.452;2023-06-10T14:23:32;12.77;;;6.93;;
10699;SDS011;5401;41.986;21.452;2023-06-10T14:26:00;8.03;;;5.63;;
10699;SDS011;5401;41.986;21.452;2023-06-10T14:28:28;7.20;;;4.37;;
10699;SDS011;5401;41.986;21.452;2023-06-10T14:30:57;11.60;;;5.57;;
10699;SDS011;5401;41.986;21.452;2023-06-10T14:33:25;5.57;;;4.20;;
10699;SDS011;5401;41.986;21.452;2023-06-10T14:35:53;7.43;;;4.80;;
10699;SDS011;5401;41.986;21.452;2023-06-10T14:38:21;8.20;;;5.00;;
10699;SDS011;5401;41.986;21.452;2023-06-10T14:40:49;10.47;;;6.57;;
10699;SDS011;5401;41.986;21.452;2023-06-10T14:43:17;5.00;;;4.47;;
10699;SDS011;5401;41.986;21.452;2023-06-10T14:45:44;7.30;;;5.37;;
10699;SDS011;5401;41.986;21.452;2023-06-10T14:48:13;12.80;;;7.23;;
10699;SDS011;5401;41.986;21.452;2023-06-10T14:50:41;5.10;;;4.07;;